Time;durP1;ratioP1;P1;durP2;ratioP2;P2;SDS_P1;SDS_P2;PMS_P1;PMS_P2;Temp;Humidity;BMP_temperature;BMP_pressure;BME280_temperature;BME280_humidity;BME280_pressure;Samples;Min_cycle;Max_cycle;Signal;HPM_P1;HPM_P2
2021/04/21 00:01:30;;;;;;;4.97;4.57;;;10.10;99.90;;;;;;3557552;40;20391;-71
2021/04/21 00:03:56;;;;;;;4.73;4.33;;;10.10;99.90;;;;;;3557541;40;20372;-71
2021/04/21 00:06:23;;;;;;;5.55;5.05;;;10.20;99.90;;;;;;3537036;40;20418;-71
2021/04/21 00:08:50;;;;;;;4.70;4.30;;;10.20;99.90;;;;;;3537802;40;20374;-71
2021/04/21 00:11:17;;;;;;;5.10;4.63;;;10.10;99.90;;;;;;3537822;40;20497;-71
2021/04/21 00:13:44;;;;;;;5.30;4.80;;;10.10;99.90;;;;;;3529772;40;20414;-71
2021/04/21 00:16:11;;;;;;;5.18;4.70;;;10.10;99.90;;;;;;3537882;40;20446;-72
2021/04/21 00:18:41;;;;;;;5.82;5.22;;;10.10;99.90;;;;;;3537972;40;20406;-71
2021/04/21 00:21:07;;;;;;;5.83;5.10;;;10.20;99.90;;;;;;3538008;40;20375;-71
2021/04/21 00:23:36;;;;;;;5.28;4.78;;;10.10;99.90;;;;;;3556697;40;20630;-70
2021/04/21 00:26:08;;;;;;;4.57;4.18;;;10.10;99.90;;;;;;3550210;40;20360;-71
2021/04/21 00:28:37;;;;;;;4.75;4.18;;;10.10;99.90;;;;;;3559111;40;20368;-71
2021/04/21 00:31:05;;;;;;;5.07;4.50;;;;;;;;;;3548387;40;20420;-71
2021/04/21 00:33:32;;;;;;;5.72;5.22;;;;;;;;;;3559258;40;20372;-71
2021/04/21 00:35:59;;;;;;;6.40;5.80;;;;;;;;;;3558291;40;20496;-71
2021/04/21 00:38:26;;;;;;;5.10;4.70;;;;;;;;;;3559222;40;20367;-71
2021/04/21 00:40:55;;;;;;;5.47;4.97;;;;;;;;;;3559188;40;20621;-72
2021/04/21 00:43:26;;;;;;;4.97;4.50;;;;;;;;;;3559257;40;20355;-71
2021/04/21 00:45:58;;;;;;;5.95;4.38;;;;;;;;;;3559119;40;20360;-72
2021/04/21 00:48:29;;;;;;;5.40;4.90;;;;;;;;;;3558150;40;20355;-70
2021/04/21 00:50:56;;;;;;;5.03;4.53;;;;;;;;;;3558964;40;20359;-71
2021/04/21 00:53:28;;;;;;;5.88;5.10;;;;;;;;;;3559116;40;20402;-72
2021/04/21 00:56:00;;;;;;;5.70;5.20;;;;;;;;;;3556875;40;20723;-71
2021/04/21 00:58:31;;;;;;;5.63;5.13;;;;;;;;;;3547297;40;20424;-71
2021/04/21 01:00:59;;;;;;;6.22;5.63;;;;;;;;;;3539124;40;20397;-71
2021/04/21 01:03:26;;;;;;;5.07;4.63;;;;;;;;;;3584491;23;20473;-69
2021/04/21 01:05:55;;;;;;;5.22;4.75;;;;;;;;;;3565577;40;20421;-69
2021/04/21 01:08:23;;;;;;;5.43;4.88;;;;;;;;;;3560691;40;20397;-69
2021/04/21 01:10:53;;;;;;;5.97;5.30;;;;;;;;;;3575354;40;20817;-69
2021/04/21 01:13:20;;;;;;;6.10;5.50;;;;;;;;;;3576654;40;20500;-69
2021/04/21 01:15:48;;;;;;;5.25;4.75;;;;;;;;;;3574253;40;20502;-69
2021/04/21 01:18:16;;;;;;;6.83;4.97;;;;;;;;;;3562071;40;20503;-69
2021/04/21 01:20:46;;;;;;;5.50;5.00;;;;;;;;;;3568698;40;20465;-69
2021/04/21 01:23:16;;;;;;;5.43;4.93;;;;;;;;;;3576609;40;20390;-69
2021/04/21 01:25:48;;;;;;;5.57;4.80;;;;;;;;;;3574631;40;20366;-69
2021/04/21 01:28:19;;;;;;;5.25;4.75;;;;;;;;;;3568942;40;20376;-69
2021/04/21 01:30:46;;;;;;;7.35;5.10;;;;;;;;;;3573137;40;20403;-69
2021/04/21 01:33:13;;;;;;;5.00;4.50;;;;;;;;;;3573037;40;20418;-69
2021/04/21 01:35:43;;;;;;;6.07;5.15;;;;;;;;;;3574161;40;20399;-69
2021/04/21 01:38:09;;;;;;;5.28;4.78;;;;;;;;;;3567320;40;20370;-69
2021/04/21 01:40:37;;;;;;;5.05;4.55;;;;;;;;;;3573467;40;20460;-69
2021/04/21 01:43:06;;;;;;;5.20;4.70;;;;;;;;;;3579188;40;20630;-69
2021/04/21 01:45:34;;;;;;;4.95;4.53;;;;;;;;;;3574087;40;20379;-69
2021/04/21 01:48:04;;;;;;;4.70;4.13;;;;;;;;;;3574431;40;20392;-69
2021/04/21 01:50:30;;;;;;;4.33;3.93;;;;;;;;;;3578614;40;20873;-70
2021/04/21 01:53:02;;;;;;;4.13;3.72;;;;;;;;;;3572442;40;20391;-69
2021/04/21 01:55:43;;;;;;;4.10;3.70;;;;;;;;;;3573601;40;20388;-69
2021/04/21 01:58:21;;;;;;;5.28;3.85;;;;;;;;;;3572626;40;20367;-69
2021/04/21 02:00:50;;;;;;;4.57;4.18;;;;;;;;;;3577692;40;20776;-68
2021/04/21 02:03:18;;;;;;;4.43;4.03;;;;;;;;;;3569674;40;20517;-71
2021/04/21 02:06:04;;;;;;;4.97;4.50;;;;;;;;;;3555328;40;20760;-70
2021/04/21 02:08:36;;;;;;;4.93;4.43;;;;;;;;;;3554369;40;20403;-69
2021/04/21 02:11:06;;;;;;;5.32;4.82;;;;;;;;;;3558149;40;20403;-70
2021/04/21 02:13:37;;;;;;;5.43;4.95;;;;;;;;;;3548431;40;20426;-69
2021/04/21 02:16:17;;;;;;;5.53;5.03;;;;;;;;;;3557778;40;20403;-70
2021/04/21 02:18:56;;;;;;;5.13;4.63;;;;;;;;;;3549242;40;20701;-69
2021/04/21 02:21:25;;;;;;;5.07;4.68;;;;;;;;;;3555001;40;20381;-71
2021/04/21 02:23:54;;;;;;;5.40;5.00;;;;;;;;;;3557492;40;20382;-70
2021/04/21 02:26:24;;;;;;;5.63;5.03;;;;;;;;;;3557699;40;20477;-69
2021/04/21 02:28:53;;;;;;;5.20;4.43;;;;;;;;;;3562546;40;20374;-71
2021/04/21 02:31:28;;;;;;;5.47;4.97;;;;;;;;;;3559617;40;20425;-69
2021/04/21 02:33:57;;;;;;;5.53;5.00;;;;;;;;;;3561364;40;20390;-70
2021/04/21 02:36:25;;;;;;;5.80;5.28;;;;;;;;;;3563452;40;20763;-69
2021/04/21 02:38:54;;;;;;;5.85;5.32;;;;;;;;;;3560216;40;20403;-70
2021/04/21 02:41:25;;;;;;;6.77;5.10;;;;;;;;;;3558544;40;20407;-69
2021/04/21 02:44:00;;;;;;;5.63;5.05;;;;;;;;;;3562844;40;20381;-70
2021/04/21 02:46:31;;;;;;;6.13;4.90;;;;;;;;;;3558038;40;20760;-69
2021/04/21 02:49:05;;;;;;;5.93;5.32;;;;;;;;;;3564261;40;20374;-69
2021/04/21 02:51:35;;;;;;;5.30;4.90;;;;;;;;;;3557967;40;20356;-70
2021/04/21 02:54:05;;;;;;;5.80;5.28;;;;;;;;;;3560638;40;20396;-69
2021/04/21 02:56:34;;;;;;;6.05;5.45;;;;;;;;;;3562139;40;20740;-69
2021/04/21 02:59:05;;;;;;;6.78;5.93;;;;;;;;;;3560777;40;20779;-69
2021/04/21 03:01:49;;;;;;;6.88;5.88;;;;;;;;;;3557658;40;20383;-69
2021/04/21 03:04:17;;;;;;;7.05;6.35;;;;;;;;;;3558439;40;20420;-69
2021/04/21 03:06:48;;;;;;;6.90;6.20;;;;;;;;;;3562774;40;20378;-70
2021/04/21 03:09:16;;;;;;;7.65;6.15;;;;;;;;;;3559840;40;20705;-69
2021/04/21 03:11:43;;;;;;;6.82;6.13;;;;;;;;;;3560481;40;20375;-69
2021/04/21 03:14:11;;;;;;;6.88;6.18;;;;;;;;;;3557399;40;20411;-69
2021/04/21 03:16:40;;;;;;;6.82;6.22;;;;;;;;;;3558425;40;20371;-69
2021/04/21 03:19:07;;;;;;;5.82;5.32;;;;;;;;;;3563112;40;20403;-69
2021/04/21 03:21:36;;;;;;;6.97;5.50;;;;;;;;;;3557380;40;20395;-69
2021/04/21 03:24:06;;;;;;;6.40;5.80;;;;;;;;;;3557397;40;20426;-69
2021/04/21 03:26:33;;;;;;;7.15;5.60;;;;;;;;;;3560635;40;20379;-72
2021/04/21 03:29:01;;;;;;;6.20;5.50;;;;;;;;;;3557365;40;20375;-69
2021/04/21 03:31:30;;;;;;;6.70;5.68;;;;;;;;;;3558161;40;20375;-69
2021/04/21 03:33:58;;;;;;;6.15;5.55;;;;;;;;;;3563423;40;20793;-69
2021/04/21 03:36:25;;;;;;;7.68;6.32;;;;;;;;;;3561291;40;20379;-69
2021/04/21 03:38:51;;;;;;;6.32;5.60;;;;;;;;;;3557548;40;20390;-71
2021/04/21 03:41:18;;;;;;;6.35;5.75;;;;;;;;;;3559690;40;20389;-69
2021/04/21 03:43:44;;;;;;;6.15;5.55;;;;;;;;;;3560974;40;20376;-69
2021/04/21 03:46:11;;;;;;;6.80;6.15;;;;;;;;;;3558949;40;20420;-69
2021/04/21 03:48:37;;;;;;;6.32;5.45;;;;;;;;;;3558773;40;20392;-69
2021/04/21 03:51:06;;;;;;;5.40;4.90;;;;;;;;;;3557293;40;20431;-69
2021/04/21 03:53:33;;;;;;;6.15;5.55;;;;;;;;;;3567150;40;20421;-69
2021/04/21 03:56:01;;;;;;;6.68;6.00;;;10.10;99.90;;;;;;3561792;40;20419;-69
2021/04/21 03:58:30;;;;;;;6.32;5.72;;;9.90;99.90;;;;;;3564674;40;20401;-69
2021/04/21 04:00:59;;;;;;;6.10;5.50;;;9.80;99.90;;;;;;3553655;40;20387;-69
2021/04/21 04:03:27;;;;;;;7.10;6.40;;;;;;;;;;3560309;40;20429;-69
2021/04/21 04:05:56;;;;;;;6.93;6.22;;;;;;;;;;3554925;40;20386;-69
2021/04/21 04:08:25;;;;;;;6.25;5.65;;;;;;;;;;3557212;40;20399;-69
2021/04/21 04:10:52;;;;;;;6.40;5.50;;;;;;;;;;3554310;40;20766;-69
2021/04/21 04:13:19;;;;;;;5.68;5.10;;;;;;;;;;3547194;40;20499;-69
2021/04/21 04:15:47;;;;;;;7.05;6.30;;;;;;;;;;3556160;40;20399;-70
2021/04/21 04:18:14;;;;;;;7.83;6.27;;;;;;;;;;3557155;40;20453;-69
2021/04/21 04:20:41;;;;;;;6.93;6.22;;;;;;;;;;3556928;40;20380;-70
2021/04/21 04:23:08;;;;;;;9.30;8.30;;;;;;;;;;3558398;40;20386;-68
2021/04/21 04:25:37;;;;;;;20.23;14.88;;;;;;;;;;3562354;40;20741;-69
2021/04/21 04:28:04;;;;;;;17.38;13.57;;;;;;;;;;3557340;40;20384;-69
2021/04/21 04:30:31;;;;;;;9.88;8.27;;;;;;;;;;3568127;40;20408;-68
2021/04/21 04:32:58;;;;;;;9.02;7.68;;;;;;;;;;3556679;40;20395;-69
2021/04/21 04:35:25;;;;;;;8.20;7.03;;;;;;;;;;3553238;40;20859;-69
2021/04/21 04:37:55;;;;;;;8.05;7.25;;;;;;;;;;3559269;40;20385;-69
2021/04/21 04:40:21;;;;;;;8.23;7.35;;;;;;;;;;3557148;40;20383;-69
2021/04/21 04:42:48;;;;;;;6.63;6.03;;;;;;;;;;3559991;40;20396;-69
2021/04/21 04:45:16;;;;;;;8.65;7.80;;;;;;;;;;3556774;40;20468;-70
2021/04/21 04:47:45;;;;;;;7.00;6.30;;;;;;;;;;3560724;40;20382;-69
2021/04/21 04:50:13;;;;;;;7.03;6.43;;;;;;;;;;3556741;40;20392;-71
2021/04/21 04:52:40;;;;;;;6.60;6.00;;;;;;;;;;3557029;40;20406;-69
2021/04/21 04:55:08;;;;;;;7.00;6.40;;;;;;;;;;3557007;40;20386;-71
2021/04/21 04:57:34;;;;;;;6.93;6.22;;;;;;;;;;3552402;40;20389;-69
2021/04/21 05:00:04;;;;;;;7.10;6.40;;;;;;;;;;3556735;40;20384;-70
2021/04/21 05:02:34;;;;;;;9.82;7.35;;;;;;;;;;3553269;40;20742;-69
2021/04/21 05:05:03;;;;;;;7.30;6.60;;;;;;;;;;3552010;40;20372;-69
2021/04/21 05:07:32;;;;;;;7.88;6.82;;;;;;;;;;3556300;40;20675;-69
2021/04/21 05:10:01;;;;;;;8.20;6.90;;;;;;;;;;3559691;40;20394;-69
2021/04/21 05:12:28;;;;;;;9.02;6.97;;;;;;;;;;3556545;40;20411;-70
2021/04/21 05:14:54;;;;;;;8.07;7.28;;;;;;;;;;3556602;40;20386;-70
2021/04/21 05:17:39;;;;;;;8.38;7.07;;;;;;;;;;3562923;40;20725;-70
2021/04/21 05:20:27;;;;;;;7.93;6.85;;;;;;;;;;3550599;40;20378;-69
2021/04/21 05:23:08;;;;;;;8.27;7.20;;;;;;;;;;3551321;40;20363;-70
2021/04/21 05:26:08;;;;;;;12.82;9.25;;;;;;;;;;3556442;40;20367;-69
2021/04/21 05:28:52;;;;;;;11.20;9.18;;;;;;;;;;3563282;40;20403;-69
2021/04/21 05:31:36;;;;;;;9.23;7.63;;;;;;;;;;3556382;40;20376;-70
2021/04/21 05:34:35;;;;;;;8.77;7.65;;;;;;;;;;3556797;40;20410;-70
2021/04/21 05:37:18;;;;;;;9.50;8.32;;;;;;;;;;3554086;40;20366;-70
2021/04/21 05:40:08;;;;;;;10.73;7.82;;;;;;;;;;3552926;40;20631;-70
2021/04/21 05:42:55;;;;;;;7.82;7.03;;;;;;;;;;3516898;40;20518;-69
2021/04/21 05:45:40;;;;;;;8.52;7.65;;;;;;;;;;3551702;40;20418;-69
2021/04/21 05:48:25;;;;;;;8.35;7.55;;;;;;;;;;3554475;40;20422;-69
2021/04/21 05:51:08;;;;;;;9.25;7.95;;;;;;;;;;3555443;40;20376;-70
2021/04/21 05:53:49;;;;;;;8.00;7.30;;;;;;;;;;3563261;40;20752;-70
2021/04/21 05:56:29;;;;;;;8.77;7.50;;;;;;;;;;3560818;40;20381;-70
2021/04/21 05:59:08;;;;;;;7.88;7.13;;;;;;;;;;3560769;40;20409;-70
2021/04/21 06:01:35;;;;;;;7.97;7.25;;;;;;;;;;3550452;40;20634;-69
2021/04/21 06:04:02;;;;;;;7.50;6.60;;;;;;;;;;3556156;40;20410;-70
2021/04/21 06:06:29;;;;;;;8.68;7.50;;;;;;;;;;3554681;40;20765;-70
2021/04/21 06:08:55;;;;;;;7.55;6.75;;;;;;;;;;3556180;40;20652;-70
2021/04/21 06:11:24;;;;;;;7.47;6.80;;;;;;;;;;3553012;40;20394;-70
2021/04/21 06:13:51;;;;;;;8.07;7.28;;;;;;;;;;3554079;40;20559;-69
2021/04/21 06:16:18;;;;;;;8.07;6.72;;;;;;;;;;3554687;40;20381;-70
2021/04/21 06:18:44;;;;;;;9.23;6.85;;;;;;;;;;3551968;40;20391;-69
2021/04/21 06:21:17;;;;;;;7.30;6.60;;;;;;;;;;3555880;40;20835;-70
2021/04/21 06:23:43;;;;;;;7.60;6.85;;;;;;;;;;3552977;40;20379;-69
2021/04/21 06:26:10;;;;;;;7.03;6.43;;;;;;;;;;3554812;40;20403;-70
2021/04/21 06:28:37;;;;;;;7.20;6.50;;;;;;;;;;3553096;40;20488;-70
2021/04/21 06:31:05;;;;;;;7.90;6.97;;;;;;;;;;3555258;40;20404;-70
2021/04/21 06:33:32;;;;;;;7.78;6.97;;;;;;;;;;3562319;40;20749;-70
2021/04/21 06:35:58;;;;;;;7.20;6.50;;;;;;;;;;3558009;40;20523;-69
2021/04/21 06:38:27;;;;;;;8.23;7.35;;;;;;;;;;3555598;40;20386;-70
2021/04/21 06:40:54;;;;;;;7.63;6.80;;;8.70;99.90;;;;;;3556078;40;20389;-69
2021/04/21 06:43:23;;;;;;;8.10;7.30;;;11.00;99.90;;;;;;3554841;40;20465;-69
2021/04/21 06:45:52;;;;;;;7.65;6.78;;;;;;;;;;3558342;40;20468;-69
2021/04/21 06:48:26;;;;;;;7.05;6.35;;;;;;;;;;3555503;40;20419;-68
2021/04/21 06:50:52;;;;;;;7.35;6.65;;;;;;;;;;3556242;40;20378;-70
2021/04/21 06:53:27;;;;;;;8.03;7.23;;;;;;;;;;3556751;40;20465;-69
2021/04/21 06:55:55;;;;;;;8.13;7.37;;;;;;;;;;3557490;40;20382;-69
2021/04/21 06:58:22;;;;;;;8.65;7.45;;;;;;;;;;3564586;40;20443;-69
2021/04/21 07:00:48;;;;;;;9.20;7.45;;;;;;;;;;3554870;40;20628;-69
2021/04/21 07:03:19;;;;;;;8.43;7.55;;;;;;;;;;3553679;40;20409;-69
2021/04/21 07:05:47;;;;;;;8.60;7.63;;;;;;;;;;3558055;40;20775;-69
2021/04/21 07:08:14;;;;;;;9.80;8.07;;;;;;;;;;3558589;40;20395;-69
2021/04/21 07:10:43;;;;;;;7.95;6.97;;;;;;;;;;3555812;40;20392;-69
2021/04/21 07:13:11;;;;;;;8.48;7.45;;;;;;;;;;3560758;40;20429;-70
2021/04/21 07:15:38;;;;;;;9.88;8.77;;;;;;;;;;3559882;40;20377;-69
2021/04/21 07:18:04;;;;;;;8.20;7.47;;;;;;;;;;3561861;40;20771;-70
2021/04/21 07:20:33;;;;;;;8.18;7.38;;;;;;;;;;3558016;40;20375;-69
2021/04/21 07:23:00;;;;;;;11.15;8.05;;;;;;;;;;3554056;40;20397;-70
2021/04/21 07:25:26;;;;;;;8.63;7.70;;;;;;;;;;3555056;40;20647;-70
2021/04/21 07:27:53;;;;;;;8.48;7.68;;;;;;;;;;3556410;40;20395;-70
2021/04/21 07:30:27;;;;;;;8.43;7.63;;;;;;;;;;3560697;40;20392;-70
2021/04/21 07:32:53;;;;;;;8.43;7.53;;;;;;;;;;3559291;40;20401;-70
2021/04/21 07:35:20;;;;;;;9.33;8.23;;;;;;;;;;3556529;40;20467;-70
2021/04/21 07:37:49;;;;;;;8.48;7.43;;;11.00;99.90;;;;;;3558320;40;20395;-70
2021/04/21 07:40:31;;;;;;;10.85;7.60;;;;;;;;;;3559745;40;20381;-70
2021/04/21 07:43:05;;;;;;;8.13;7.30;;;;;;;;;;3563153;40;20389;-70
2021/04/21 07:45:46;;;;;;;7.90;7.10;;;;;;;;;;3558579;40;20394;-69
2021/04/21 07:48:31;;;;;;;8.70;7.90;;;;;;;;;;3552513;40;20405;-70
2021/04/21 07:50:57;;;;;;;8.00;7.30;;;;;;;;;;3554484;40;20375;-70
2021/04/21 07:53:24;;;;;;;8.85;7.50;;;;;;;;;;3561944;40;20414;-69
2021/04/21 07:56:02;;;;;;;7.90;7.10;;;;;;;;;;3558156;40;20454;-72
2021/04/21 07:58:28;;;;;;;10.77;7.43;;;;;;;;;;3557014;40;20464;-72
2021/04/21 08:00:55;;;;;;;8.30;7.50;;;;;;;;;;3556367;40;20379;-71
2021/04/21 08:03:23;;;;;;;7.70;6.95;;;;;;;;;;3555804;40;20458;-70
2021/04/21 08:05:52;;;;;;;8.80;7.78;;;;;;;;;;3563622;40;20646;-70
2021/04/21 08:08:27;;;;;;;7.93;7.15;;;;;;;;;;3564654;40;20406;-70
2021/04/21 08:10:53;;;;;;;7.70;6.22;;;;;;;;;;3566865;40;20636;-70
2021/04/21 08:13:34;;;;;;;7.82;6.68;;;;;;;;;;3566000;40;20401;-71
2021/04/21 08:16:01;;;;;;;6.78;6.18;;;;;;;;;;3565693;40;20405;-70
2021/04/21 08:18:31;;;;;;;6.53;5.93;;;;;;;;;;3563211;40;20421;-70
2021/04/21 08:20:58;;;;;;;7.70;6.90;;;;;;;;;;3566966;40;20417;-70
2021/04/21 08:23:24;;;;;;;7.82;6.45;;;;;;;;;;3564400;40;20405;-69
2021/04/21 08:25:52;;;;;;;6.53;5.87;;;;;;;;;;3570046;40;20528;-69
2021/04/21 08:28:19;;;;;;;7.38;6.13;;;;;;;;;;3568075;40;20381;-70
2021/04/21 08:30:52;;;;;;;7.18;5.95;;;;;;;;;;3566450;40;20448;-70
2021/04/21 08:33:18;;;;;;;7.18;5.93;;;12.30;99.90;;;;;;3566974;40;20386;-70
2021/04/21 08:35:45;;;;;;;5.97;5.37;;;;;;;;;;3567670;40;20823;-71
2021/04/21 08:38:11;;;;;;;6.60;5.93;;;;;;;;;;3565150;40;20382;-70
2021/04/21 08:40:40;;;;;;;8.32;6.78;;;;;;;;;;3558264;40;20453;-70
2021/04/21 08:43:08;;;;;;;8.17;6.30;;;;;;;;;;3565736;40;20381;-71
2021/04/21 08:45:35;;;;;;;7.70;6.82;;;;;;;;;;3561944;40;20856;-70
2021/04/21 08:48:03;;;;;;;6.03;5.53;;;;;;;;;;3560440;40;20400;-70
2021/04/21 08:50:31;;;;;;;7.07;6.38;;;14.40;97.20;;;;;;3564724;40;20395;-70
2021/04/21 08:53:02;;;;;;;6.95;5.80;;;14.00;97.30;;;;;;3573959;40;20496;-70
2021/04/21 08:55:29;;;;;;;7.35;6.65;;;14.10;96.90;;;;;;3567497;40;20374;-70
2021/04/21 08:57:56;;;;;;;6.43;5.63;;;14.30;96.90;;;;;;3564934;40;20387;-70
2021/04/21 09:00:23;;;;;;;6.70;6.10;;;14.30;96.50;;;;;;3562786;40;20392;-71
2021/04/21 09:02:49;;;;;;;6.45;5.35;;;14.30;96.70;;;;;;3564870;40;20514;-71
2021/04/21 09:05:18;;;;;;;6.95;5.28;;;14.40;96.30;;;;;;3566828;40;20382;-71
2021/04/21 09:07:45;;;;;;;5.32;4.78;;;14.40;96.30;;;;;;3565994;40;20405;-71
2021/04/21 09:10:14;;;;;;;7.78;5.55;;;14.30;96.70;;;;;;3566284;40;20690;-70
2021/04/21 09:12:40;;;;;;;8.90;5.60;;;14.40;96.80;;;;;;3563451;40;20424;-71
2021/04/21 09:15:08;;;;;;;5.90;5.40;;;14.50;96.70;;;;;;3561271;40;20378;-70
2021/04/21 09:17:42;;;;;;;7.72;5.80;;;14.50;96.60;;;;;;3568216;40;20771;-71
2021/04/21 09:20:13;;;;;;;14.48;6.30;;;14.70;95.60;;;;;;3566455;40;20759;-70
2021/04/21 09:22:58;;;;;;;6.57;5.73;;;14.60;95.70;;;;;;3565114;40;20366;-70
2021/04/21 09:25:24;;;;;;;6.07;5.17;;;14.70;95.70;;;;;;3564947;40;20763;-69
2021/04/21 09:27:54;;;;;;;6.07;5.45;;;14.70;96.10;;;;;;3559858;40;20416;-71
2021/04/21 09:30:22;;;;;;;7.28;5.30;;;14.60;96.10;;;;;;3566003;40;20421;-70
2021/04/21 09:32:52;;;;;;;7.18;5.95;;;;;;;;;;3564547;40;20405;-71
2021/04/21 09:35:23;;;;;;;8.57;6.32;;;14.70;95.80;;;;;;3566493;40;20445;-69
2021/04/21 09:37:51;;;;;;;6.80;5.30;;;14.90;95.50;;;;;;3567637;40;20385;-71
2021/04/21 09:40:40;;;;;;;5.83;5.27;;;14.80;95.80;;;;;;3566021;40;20409;-70
2021/04/21 09:43:07;;;;;;;6.60;6.00;;;14.90;95.60;;;;;;3563151;40;20402;-71
2021/04/21 09:45:38;;;;;;;6.25;5.65;;;14.80;95.80;;;;;;3561302;40;20430;-70
2021/04/21 09:48:10;;;;;;;6.10;5.50;;;14.80;96.10;;;;;;3556463;40;20490;-70
2021/04/21 09:50:37;;;;;;;6.28;5.78;;;;;;;;;;3568027;40;20388;-70
2021/04/21 09:53:17;;;;;;;6.22;5.40;;;;;;;;;;3556541;40;20425;-72
2021/04/21 09:55:46;;;;;;;5.95;5.18;;;;;;;;;;3567576;40;20392;-71
2021/04/21 09:58:26;;;;;;;6.35;5.57;;;;;;;;;;3560310;40;20411;-71
2021/04/21 10:00:52;;;;;;;7.70;5.88;;;;;;;;;;3566120;40;20632;-71
2021/04/21 10:03:19;;;;;;;8.50;5.83;;;;;;;;;;3565903;40;20410;-71
2021/04/21 10:05:45;;;;;;;7.45;5.57;;;;;;;;;;3563561;40;20391;-70
2021/04/21 10:08:16;;;;;;;7.25;5.40;;;;;;;;;;3566156;40;20389;-71
2021/04/21 10:10:43;;;;;;;8.05;5.57;;;;;;;;;;3559968;40;20381;-71
2021/04/21 10:13:19;;;;;;;6.35;5.50;;;;;;;;;;3562663;40;20401;-70
2021/04/21 10:15:46;;;;;;;7.40;5.20;;;;;;;;;;3563748;40;20773;-71
2021/04/21 10:18:13;;;;;;;7.15;5.40;;;;;;;;;;3566132;40;20374;-70
2021/04/21 10:20:41;;;;;;;5.22;4.72;;;;;;;;;;3566376;40;20738;-70
2021/04/21 10:23:07;;;;;;;5.75;5.13;;;;;;;;;;3570845;40;20396;-70
2021/04/21 10:25:35;;;;;;;6.60;5.10;;;;;;;;;;3567652;40;20404;-70
2021/04/21 10:28:01;;;;;;;5.97;4.97;;;;;;;;;;3567333;40;20377;-70
2021/04/21 10:30:27;;;;;;;6.55;5.85;;;;;;;;;;3567699;40;20449;-70
2021/04/21 10:32:53;;;;;;;6.15;5.28;;;;;;;;;;3565051;40;20772;-70
2021/04/21 10:35:20;;;;;;;6.30;5.07;;;15.70;94.80;;;;;;3569486;40;20412;-69
2021/04/21 10:37:47;;;;;;;5.88;4.90;;;;;;;;;;3558410;40;20409;-70
2021/04/21 10:40:22;;;;;;;7.68;5.50;;;;;;;;;;3567561;40;20394;-70
2021/04/21 10:42:50;;;;;;;5.97;5.38;;;17.30;92.10;;;;;;3568396;40;20760;-70
2021/04/21 10:45:18;;;;;;;6.93;5.90;;;17.20;92.30;;;;;;3565839;40;20417;-70
2021/04/21 10:47:45;;;;;;;8.50;6.40;;;;;;;;;;3565972;40;20390;-70
2021/04/21 10:50:13;;;;;;;5.82;5.22;;;;;;;;;;3562371;40;20390;-69
2021/04/21 10:52:40;;;;;;;6.82;5.20;;;;;;;;;;3565979;40;20453;-69
2021/04/21 10:55:36;;;;;;;6.25;5.55;;;18.00;90.70;;;;;;3560924;40;20397;-69
2021/04/21 10:58:03;;;;;;;5.90;5.28;;;;;;;;;;3567620;40;20451;-70
2021/04/21 11:00:31;;;;;;;5.38;4.70;;;18.00;91.10;;;;;;3564634;40;20405;-69
2021/04/21 11:02:58;;;;;;;6.25;5.57;;;;;;;;;;3563886;40;20422;-70
2021/04/21 11:05:29;;;;;;;6.53;5.30;;;;;;;;;;3556892;40;20403;-70
2021/04/21 11:07:59;;;;;;;5.05;4.25;;;;;;;;;;3556306;40;20383;-69
2021/04/21 11:10:33;;;;;;;6.55;5.85;;;;;;;;;;3553554;40;20411;-71
2021/04/21 11:13:00;;;;;;;4.38;3.90;;;;;;;;;;3562800;40;20839;-71
2021/04/21 11:15:40;;;;;;;6.45;4.38;;;;;;;;;;3556886;40;20387;-70
2021/04/21 11:18:13;;;;;;;4.32;3.75;;;;;;;;;;3543219;40;20452;-70
2021/04/21 11:20:50;;;;;;;5.32;4.18;;;;;;;;;;3536540;40;20770;-71
2021/04/21 11:23:31;;;;;;;5.70;4.13;;;;;;;;;;3542457;40;20393;-70
2021/04/21 11:26:12;;;;;;;5.47;3.97;;;;;;;;;;3541679;40;20405;-70
2021/04/21 11:28:59;;;;;;;4.43;3.90;;;;;;;;;;3543246;40;20542;-70
2021/04/21 11:31:40;;;;;;;4.25;3.60;;;;;;;;;;3544820;40;20908;-70
2021/04/21 11:34:16;;;;;;;4.95;3.88;;;;;;;;;;3542296;40;20784;-70
2021/04/21 11:36:49;;;;;;;4.43;3.38;;;;;;;;;;3545420;40;20417;-71
2021/04/21 11:39:16;;;;;;;5.20;3.60;;;;;;;;;;3543653;40;20396;-70
2021/04/21 11:41:46;;;;;;;5.13;3.58;;;;;;;;;;3545392;40;20406;-68
2021/04/21 11:44:49;;;;;;;5.87;3.57;;;18.40;96.50;;;;;;3544241;40;20456;-71
2021/04/21 11:47:28;;;;;;;5.03;3.50;;;;;;;;;;3545999;40;20387;-70
2021/04/21 11:50:02;;;;;;;4.50;3.03;;;;;;;;;;3553291;40;20472;-70
2021/04/21 11:52:42;;;;;;;4.20;2.93;;;;;;;;;;3556575;40;20406;-70
2021/04/21 11:55:08;;;;;;;4.00;2.97;;;;;;;;;;3562035;40;20391;-70
2021/04/21 11:57:35;;;;;;;4.60;3.08;;;;;;;;;;3556621;40;20761;-70
2021/04/21 12:00:01;;;;;;;4.63;3.20;;;;;;;;;;3556272;40;20380;-70
2021/04/21 12:02:28;;;;;;;4.18;2.97;;;;;;;;;;3555812;40;21027;-70
2021/04/21 12:04:55;;;;;;;3.60;3.28;;;;;;;;;;3557913;40;20390;-70
2021/04/21 12:07:21;;;;;;;4.00;3.20;;;;;;;;;;3554985;40;20397;-70
2021/04/21 12:09:47;;;;;;;4.95;3.40;;;;;;;;;;3553004;40;20780;-70
2021/04/21 12:12:22;;;;;;;6.90;3.42;;;;;;;;;;3559327;40;20409;-69
2021/04/21 12:15:01;;;;;;;4.32;3.25;;;;;;;;;;3566731;40;20382;-70
2021/04/21 12:17:28;;;;;;;3.30;2.88;;;;;;;;;;3566981;40;20471;-70
2021/04/21 12:19:55;;;;;;;6.15;3.83;;;;;;;;;;3566932;40;20748;-70
2021/04/21 12:22:21;;;;;;;4.70;3.85;;;;;;;;;;3566263;40;20380;-70
2021/04/21 12:24:47;;;;;;;3.75;3.33;;;;;;;;;;3565554;40;20459;-70
2021/04/21 12:27:27;;;;;;;4.25;3.85;;;;;;;;;;3557254;40;20416;-69
2021/04/21 12:29:53;;;;;;;5.60;4.28;;;;;;;;;;3564978;40;20381;-71
2021/04/21 12:32:26;;;;;;;4.10;3.40;;;;;;;;;;3569370;40;20512;-70
2021/04/21 12:34:53;;;;;;;4.25;3.60;;;;;;;;;;3569031;40;20468;-70
2021/04/21 12:37:22;;;;;;;4.90;4.40;;;;;;;;;;3566554;40;20381;-69
2021/04/21 12:39:49;;;;;;;5.50;3.90;;;;;;;;;;3553947;40;20814;-70
2021/04/21 12:42:19;;;;;;;5.35;3.58;;;;;;;;;;3565671;40;20425;-70
2021/04/21 12:44:45;;;;;;;4.80;3.70;;;;;;;;;;3563037;40;20778;-71
2021/04/21 12:47:12;;;;;;;5.10;3.47;;;;;;;;;;3565397;40;20741;-70
2021/04/21 12:49:40;;;;;;;5.88;4.25;;;;;;;;;;3565283;40;20385;-69
2021/04/21 12:52:09;;;;;;;5.47;4.38;;;;;;;;;;3556049;40;20767;-70
2021/04/21 12:54:37;;;;;;;7.03;6.10;;;;;;;;;;3570327;40;20397;-69
2021/04/21 12:57:04;;;;;;;5.35;4.45;;;;;;;;;;3566510;40;20762;-70
2021/04/21 12:59:38;;;;;;;5.50;4.18;;;;;;;;;;3557201;40;20496;-70
2021/04/21 13:02:05;;;;;;;5.70;4.27;;;;;;;;;;3566082;40;20479;-70
2021/04/21 13:04:35;;;;;;;6.05;4.32;;;;;;;;;;3566996;40;20401;-70
2021/04/21 13:07:12;;;;;;;5.72;4.57;;;;;;;;;;3566333;40;20396;-69
2021/04/21 13:09:38;;;;;;;4.37;3.90;;;;;;;;;;3565444;40;20709;-70
2021/04/21 13:12:05;;;;;;;5.30;3.90;;;;;;;;;;3567838;40;20500;-72
2021/04/21 13:14:36;;;;;;;5.88;3.80;;;;;;;;;;3565915;40;20393;-70
2021/04/21 13:17:02;;;;;;;5.93;4.33;;;;;;;;;;3567443;40;20403;-72
2021/04/21 13:19:29;;;;;;;4.10;3.35;;;19.60;77.50;;;;;;3565475;40;20675;-70
2021/04/21 13:22:08;;;;;;;4.30;3.53;;;19.30;74.30;;;;;;3557476;40;20404;-70
2021/04/21 13:24:44;;;;;;;4.70;3.83;;;19.40;72.60;;;;;;3563077;40;20374;-70
2021/04/21 13:27:19;;;;;;;4.25;3.40;;;19.40;72.10;;;;;;3566406;40;20759;-71
2021/04/21 13:29:57;;;;;;;6.80;4.00;;;19.50;72.70;;;;;;3569396;40;20393;-70
2021/04/21 13:32:24;;;;;;;9.50;6.27;;;19.40;72.10;;;;;;3563075;40;20850;-70
2021/04/21 13:34:50;;;;;;;11.23;7.63;;;19.50;70.90;;;;;;3560298;40;20401;-70
2021/04/21 13:37:16;;;;;;;5.00;4.50;;;19.40;74.00;;;;;;3562897;40;20405;-70
2021/04/21 13:39:43;;;;;;;5.85;4.75;;;19.30;72.80;;;;;;3559900;40;20381;-71
2021/04/21 13:42:09;;;;;;;6.60;4.38;;;19.20;73.10;;;;;;3560862;40;20467;-70
2021/04/21 13:44:35;;;;;;;5.10;3.72;;;19.10;74.20;;;;;;3560533;40;20491;-70
2021/04/21 13:47:03;;;;;;;4.45;3.17;;;19.10;73.30;;;;;;3552413;40;20417;-69
2021/04/21 13:49:29;;;;;;;3.95;2.90;;;19.00;72.20;;;;;;3562439;40;20429;-69
2021/04/21 13:51:55;;;;;;;5.07;3.20;;;;;;;;;;3560649;40;20403;-70
2021/04/21 13:54:21;;;;;;;4.93;3.35;;;;;;;;;;3552622;40;20421;-69
2021/04/21 13:56:48;;;;;;;4.03;3.00;;;;;;;;;;3563619;40;20442;-70
2021/04/21 13:59:15;;;;;;;3.67;2.67;;;;;;;;;;3563490;40;20439;-69
2021/04/21 14:01:41;;;;;;;5.25;2.83;;;;;;;;;;3563255;40;20494;-70
2021/04/21 14:04:07;;;;;;;3.22;2.70;;;;;;;;;;3565363;40;20462;-69
2021/04/21 14:06:34;;;;;;;10.55;3.60;;;;;;;;;;3561100;40;20466;-71
2021/04/21 14:09:00;;;;;;;4.15;3.33;;;;;;;;;;3563307;40;20398;-70
2021/04/21 14:11:26;;;;;;;5.38;3.67;;;;;;;;;;3564055;40;20639;-71
2021/04/21 14:13:53;;;;;;;4.28;3.25;;;;;;;;;;3562935;40;20397;-70
2021/04/21 14:16:20;;;;;;;3.83;3.13;;;;;;;;;;3562413;40;20766;-70
2021/04/21 14:18:46;;;;;;;3.95;2.83;;;;;;;;;;3554559;40;20414;-70
2021/04/21 14:21:12;;;;;;;3.83;3.00;;;;;;;;;;3562272;40;20693;-70
2021/04/21 14:23:38;;;;;;;3.42;2.80;;;;;;;;;;3554142;40;20417;-70
2021/04/21 14:26:04;;;;;;;4.40;3.10;;;;;;;;;;3563185;40;20381;-72
2021/04/21 14:28:31;;;;;;;3.97;3.10;;;;;;;;;;3567316;40;20387;-70
2021/04/21 14:30:58;;;;;;;3.65;2.85;;;;;;;;;;3567347;40;20378;-70
2021/04/21 14:33:24;;;;;;;3.80;3.40;;;;;;;;;;3561132;40;20506;-69
2021/04/21 14:35:50;;;;;;;4.82;3.33;;;;;;;;;;3570920;40;20872;-70
2021/04/21 14:38:16;;;;;;;3.90;3.40;;;;;;;;;;3566874;40;20375;-69